sensor_id;sensor_type;location;lat;lon;timestamp;pressure;altitude;pressure_sealevel;temperature;humidity
48364;BME280;34170;54.364;18.582;2023-04-26T00:00:43;99415.13;;;6.76;70.63
48364;BME280;34170;54.364;18.582;2023-04-26T00:03:13;99414.84;;;6.79;70.88
48364;BME280;34170;54.364;18.582;2023-04-26T00:05:40;99416.13;;;6.75;71.33
48364;BME280;34170;54.364;18.582;2023-04-26T00:08:11;99413.03;;;6.70;71.41
48364;BME280;34170;54.364;18.582;2023-04-26T00:10:42;99419.38;;;6.59;72.06
48364;BME280;34170;54.364;18.582;2023-04-26T00:13:09;99417.38;;;6.41;73.30
48364;BME280;34170;54.364;18.582;2023-04-26T00:15:37;99414.16;;;6.47;73.32
48364;BME280;34170;54.364;18.582;2023-04-26T00:18:04;99409.66;;;6.48;73.41
48364;BME280;34170;54.364;18.582;2023-04-26T00:20:32;99410.06;;;6.43;73.08
48364;BME280;34170;54.364;18.582;2023-04-26T00:22:59;99412.75;;;6.34;74.31
48364;BME280;34170;54.364;18.582;2023-04-26T00:25:27;99404.59;;;6.35;74.59
48364;BME280;34170;54.364;18.582;2023-04-26T00:27:55;99407.94;;;6.27;75.07
48364;BME280;34170;54.364;18.582;2023-04-26T00:30:22;99417.94;;;6.35;75.21
48364;BME280;34170;54.364;18.582;2023-04-26T00:32:49;99410.91;;;6.24;75.94
48364;BME280;34170;54.364;18.582;2023-04-26T00:35:17;99403.16;;;6.31;75.86
48364;BME280;34170;54.364;18.582;2023-04-26T00:37:45;99406.28;;;6.36;75.83
48364;BME280;34170;54.364;18.582;2023-04-26T00:40:14;99408.25;;;6.44;76.02
48364;BME280;34170;54.364;18.582;2023-04-26T00:43:22;99405.16;;;6.58;75.35
48364;BME280;34170;54.364;18.582;2023-04-26T00:45:50;99403.47;;;6.57;75.29
48364;BME280;34170;54.364;18.582;2023-04-26T00:48:19;99411.06;;;6.72;74.55
48364;BME280;34170;54.364;18.582;2023-04-26T00:50:47;99403.31;;;6.68;75.07
48364;BME280;34170;54.364;18.582;2023-04-26T00:53:15;99400.38;;;6.72;74.31
48364;BME280;34170;54.364;18.582;2023-04-26T00:55:43;99395.88;;;6.62;74.92
48364;BME280;34170;54.364;18.582;2023-04-26T00:58:19;99404.16;;;6.59;75.86
48364;BME280;34170;54.364;18.582;2023-04-26T01:00:46;99400.53;;;6.60;75.77
48364;BME280;34170;54.364;18.582;2023-04-26T01:03:15;99399.97;;;6.37;76.24
48364;BME280;34170;54.364;18.582;2023-04-26T01:05:44;99400.50;;;6.70;75.16
48364;BME280;34170;54.364;18.582;2023-04-26T01:08:12;99413.88;;;6.80;75.39
48364;BME280;34170;54.364;18.582;2023-04-26T01:10:43;99406.38;;;7.03;73.70
48364;BME280;34170;54.364;18.582;2023-04-26T01:13:11;99404.00;;;6.90;73.45
48364;BME280;34170;54.364;18.582;2023-04-26T01:15:44;99410.44;;;6.97;74.43
48364;BME280;34170;54.364;18.582;2023-04-26T01:18:51;99415.66;;;7.09;73.31
48364;BME280;34170;54.364;18.582;2023-04-26T01:21:22;99408.19;;;7.02;73.38
48364;BME280;34170;54.364;18.582;2023-04-26T01:23:52;99419.84;;;7.21;73.23
48364;BME280;34170;54.364;18.582;2023-04-26T01:26:19;99408.97;;;7.22;72.66
48364;BME280;34170;54.364;18.582;2023-04-26T01:28:47;99402.78;;;7.22;72.37
48364;BME280;34170;54.364;18.582;2023-04-26T01:31:15;99406.56;;;7.29;71.99
48364;BME280;34170;54.364;18.582;2023-04-26T01:33:43;99395.78;;;7.21;71.91
48364;BME280;34170;54.364;18.582;2023-04-26T01:36:11;99409.84;;;7.13;72.67
48364;BME280;34170;54.364;18.582;2023-04-26T01:38:38;99392.78;;;7.24;72.21
48364;BME280;34170;54.364;18.582;2023-04-26T01:41:05;99389.88;;;7.17;71.52
48364;BME280;34170;54.364;18.582;2023-04-26T01:43:33;99414.16;;;7.34;72.04
48364;BME280;34170;54.364;18.582;2023-04-26T01:46:00;99410.13;;;7.20;72.80
48364;BME280;34170;54.364;18.582;2023-04-26T01:48:29;99413.63;;;7.20;72.88
48364;BME280;34170;54.364;18.582;2023-04-26T01:50:59;99411.28;;;7.17;73.02
48364;BME280;34170;54.364;18.582;2023-04-26T01:53:27;99402.69;;;7.04;73.43
48364;BME280;34170;54.364;18.582;2023-04-26T01:55:54;99401.56;;;7.16;73.18
48364;BME280;34170;54.364;18.582;2023-04-26T01:58:22;99401.56;;;7.16;73.34
48364;BME280;34170;54.364;18.582;2023-04-26T02:00:49;99414.19;;;7.24;72.85
48364;BME280;34170;54.364;18.582;2023-04-26T02:03:17;99401.38;;;7.28;73.48
48364;BME280;34170;54.364;18.582;2023-04-26T02:05:44;99414.72;;;7.37;72.72
48364;BME280;34170;54.364;18.582;2023-04-26T02:08:11;99407.72;;;7.17;73.73
48364;BME280;34170;54.364;18.582;2023-04-26T02:10:39;99406.28;;;7.32;72.74
48364;BME280;34170;54.364;18.582;2023-04-26T02:13:08;99404.03;;;7.28;72.71
48364;BME280;34170;54.364;18.582;2023-04-26T02:15:35;99404.91;;;7.28;73.19
48364;BME280;34170;54.364;18.582;2023-04-26T02:18:03;99397.97;;;7.35;73.02
48364;BME280;34170;54.364;18.582;2023-04-26T02:20:32;99398.25;;;7.32;73.15
48364;BME280;34170;54.364;18.582;2023-04-26T02:23:00;99386.75;;;7.22;73.04
48364;BME280;34170;54.364;18.582;2023-04-26T02:25:27;99389.63;;;7.38;72.98
48364;BME280;34170;54.364;18.582;2023-04-26T02:27:55;99400.50;;;7.37;73.15
48364;BME280;34170;54.364;18.582;2023-04-26T02:30:22;99400.25;;;7.30;73.13
48364;BME280;34170;54.364;18.582;2023-04-26T02:32:54;99402.72;;;7.41;72.74
48364;BME280;34170;54.364;18.582;2023-04-26T02:35:22;99406.09;;;7.43;72.53
48364;BME280;34170;54.364;18.582;2023-04-26T02:37:50;99402.03;;;7.39;72.88
48364;BME280;34170;54.364;18.582;2023-04-26T02:40:20;99403.75;;;7.40;72.97
48364;BME280;34170;54.364;18.582;2023-04-26T02:42:48;99401.28;;;7.47;73.58
48364;BME280;34170;54.364;18.582;2023-04-26T02:45:16;99403.69;;;7.50;73.62
48364;BME280;34170;54.364;18.582;2023-04-26T02:47:43;99383.22;;;7.59;72.38
48364;BME280;34170;54.364;18.582;2023-04-26T02:50:11;99395.47;;;7.61;72.26
48364;BME280;34170;54.364;18.582;2023-04-26T02:52:39;99391.19;;;7.41;72.78
48364;BME280;34170;54.364;18.582;2023-04-26T02:55:06;99385.16;;;7.39;72.96
48364;BME280;34170;54.364;18.582;2023-04-26T02:57:34;99390.09;;;7.34;73.77
48364;BME280;34170;54.364;18.582;2023-04-26T03:00:05;99390.09;;;7.34;73.81
48364;BME280;34170;54.364;18.582;2023-04-26T03:02:34;99390.13;;;7.24;74.59
48364;BME280;34170;54.364;18.582;2023-04-26T03:05:02;99402.06;;;7.30;74.66
48364;BME280;34170;54.364;18.582;2023-04-26T03:12:02;99399.06;;;7.05;75.88
48364;BME280;34170;54.364;18.582;2023-04-26T03:14:29;99399.19;;;7.03;76.40
48364;BME280;34170;54.364;18.582;2023-04-26T03:16:57;99396.38;;;7.05;75.94
48364;BME280;34170;54.364;18.582;2023-04-26T03:19:25;99387.91;;;7.10;76.07
48364;BME280;34170;54.364;18.582;2023-04-26T03:21:55;99402.78;;;7.22;75.81
48364;BME280;34170;54.364;18.582;2023-04-26T03:24:22;99401.13;;;7.21;75.88
48364;BME280;34170;54.364;18.582;2023-04-26T03:26:50;99406.44;;;7.31;75.57
48364;BME280;34170;54.364;18.582;2023-04-26T03:29:18;99410.13;;;7.20;75.67
48364;BME280;34170;54.364;18.582;2023-04-26T03:31:46;99405.19;;;7.25;75.94
48364;BME280;34170;54.364;18.582;2023-04-26T03:34:13;99404.31;;;7.34;75.45
48364;BME280;34170;54.364;18.582;2023-04-26T03:36:41;99403.91;;;7.29;75.25
48364;BME280;34170;54.364;18.582;2023-04-26T03:39:08;99390.97;;;7.24;74.96
48364;BME280;34170;54.364;18.582;2023-04-26T03:41:36;99402.38;;;7.27;75.17
48364;BME280;34170;54.364;18.582;2023-04-26T03:44:06;99410.81;;;7.32;75.19
48364;BME280;34170;54.364;18.582;2023-04-26T03:46:34;99416.56;;;7.37;75.19
48364;BME280;34170;54.364;18.582;2023-04-26T03:49:09;99410.00;;;7.12;75.58
48364;BME280;34170;54.364;18.582;2023-04-26T03:51:36;99417.41;;;7.28;75.58
48364;BME280;34170;54.364;18.582;2023-04-26T03:54:04;99417.53;;;7.36;75.17
48364;BME280;34170;54.364;18.582;2023-04-26T03:56:32;99410.72;;;7.14;75.88
48364;BME280;34170;54.364;18.582;2023-04-26T03:59:01;99424.59;;;7.27;75.59
48364;BME280;34170;54.364;18.582;2023-04-26T04:01:28;99414.22;;;7.14;75.62
48364;BME280;34170;54.364;18.582;2023-04-26T04:03:56;99423.91;;;7.15;75.74
48364;BME280;34170;54.364;18.582;2023-04-26T04:06:24;99428.75;;;7.02;76.34
48364;BME280;34170;54.364;18.582;2023-04-26T04:08:51;99433.22;;;7.11;76.00
48364;BME280;34170;54.364;18.582;2023-04-26T04:11:20;99430.13;;;7.16;75.98
48364;BME280;34170;54.364;18.582;2023-04-26T04:13:47;99432.66;;;7.07;75.66
48364;BME280;34170;54.364;18.582;2023-04-26T04:16:15;99417.22;;;7.01;76.21
48364;BME280;34170;54.364;18.582;2023-04-26T04:18:43;99439.69;;;7.18;76.07
48364;BME280;34170;54.364;18.582;2023-04-26T04:21:10;99443.47;;;7.25;75.27
48364;BME280;34170;54.364;18.582;2023-04-26T04:23:38;99438.25;;;7.24;75.33
48364;BME280;34170;54.364;18.582;2023-04-26T04:26:08;99435.75;;;7.13;75.26
48364;BME280;34170;54.364;18.582;2023-04-26T04:28:38;99439.28;;;7.03;75.67
48364;BME280;34170;54.364;18.582;2023-04-26T04:31:08;99431.41;;;7.02;75.83
48364;BME280;34170;54.364;18.582;2023-04-26T04:33:39;99435.78;;;6.74;76.99
48364;BME280;34170;54.364;18.582;2023-04-26T04:36:08;99431.69;;;7.09;76.45
48364;BME280;34170;54.364;18.582;2023-04-26T04:38:35;99435.47;;;7.16;75.50
48364;BME280;34170;54.364;18.582;2023-04-26T04:41:04;99436.47;;;7.05;75.83
48364;BME280;34170;54.364;18.582;2023-04-26T04:43:33;99434.75;;;7.23;75.17
48364;BME280;34170;54.364;18.582;2023-04-26T04:46:01;99446.13;;;7.35;74.10
48364;BME280;34170;54.364;18.582;2023-04-26T04:48:32;99441.06;;;7.22;75.03
48364;BME280;34170;54.364;18.582;2023-04-26T04:50:59;99432.34;;;7.30;74.36
48364;BME280;34170;54.364;18.582;2023-04-26T04:53:28;99441.31;;;7.39;74.63
48364;BME280;34170;54.364;18.582;2023-04-26T04:55:56;99447.59;;;7.57;74.27
48364;BME280;34170;54.364;18.582;2023-04-26T04:58:56;99447.78;;;7.36;74.81
48364;BME280;34170;54.364;18.582;2023-04-26T05:01:24;99461.72;;;7.50;72.63
48364;BME280;34170;54.364;18.582;2023-04-26T05:03:55;99454.16;;;7.73;72.61
48364;BME280;34170;54.364;18.582;2023-04-26T05:06:23;99444.28;;;7.73;71.86
48364;BME280;34170;54.364;18.582;2023-04-26T05:08:51;99443.31;;;8.02;71.31
48364;BME280;34170;54.364;18.582;2023-04-26T05:11:19;99460.13;;;8.40;69.46
48364;BME280;34170;54.364;18.582;2023-04-26T05:13:47;99460.63;;;8.26;69.18
48364;BME280;34170;54.364;18.582;2023-04-26T05:16:18;99458.75;;;8.08;70.00
48364;BME280;34170;54.364;18.582;2023-04-26T05:18:46;99465.97;;;8.08;70.32
48364;BME280;34170;54.364;18.582;2023-04-26T05:21:14;99475.84;;;8.07;70.60
48364;BME280;34170;54.364;18.582;2023-04-26T05:23:42;99458.06;;;8.06;70.50
48364;BME280;34170;54.364;18.582;2023-04-26T05:26:15;99476.28;;;8.02;70.37
48364;BME280;34170;54.364;18.582;2023-04-26T05:29:17;99463.38;;;7.88;72.27
48364;BME280;34170;54.364;18.582;2023-04-26T05:32:04;99475.66;;;7.81;71.61
48364;BME280;34170;54.364;18.582;2023-04-26T05:34:52;99471.88;;;7.83;71.69
48364;BME280;34170;54.364;18.582;2023-04-26T05:37:19;99453.63;;;7.59;72.04
48364;BME280;34170;54.364;18.582;2023-04-26T05:39:47;99464.69;;;7.74;71.88
48364;BME280;34170;54.364;18.582;2023-04-26T05:42:15;99458.28;;;7.57;72.65
48364;BME280;34170;54.364;18.582;2023-04-26T05:44:44;99463.75;;;8.03;71.75
48364;BME280;34170;54.364;18.582;2023-04-26T05:47:12;99448.47;;;8.31;69.46
48364;BME280;34170;54.364;18.582;2023-04-26T05:49:39;99453.06;;;7.93;71.22
48364;BME280;34170;54.364;18.582;2023-04-26T05:52:10;99462.84;;;8.58;68.72
48364;BME280;34170;54.364;18.582;2023-04-26T05:54:37;99468.63;;;9.25;64.38
48364;BME280;34170;54.364;18.582;2023-04-26T05:57:05;99469.94;;;10.16;61.01
48364;BME280;34170;54.364;18.582;2023-04-26T05:59:35;99475.28;;;10.51;58.10
48364;BME280;34170;54.364;18.582;2023-04-26T06:02:04;99473.78;;;10.14;58.57
48364;BME280;34170;54.364;18.582;2023-04-26T06:04:31;99481.97;;;10.38;57.94
48364;BME280;34170;54.364;18.582;2023-04-26T06:07:09;99465.81;;;9.61;59.82
48364;BME280;34170;54.364;18.582;2023-04-26T06:09:37;99473.13;;;9.51;61.14
48364;BME280;34170;54.364;18.582;2023-04-26T06:12:04;99478.81;;;9.22;62.26
48364;BME280;34170;54.364;18.582;2023-04-26T06:14:35;99480.38;;;8.70;64.93
48364;BME280;34170;54.364;18.582;2023-04-26T06:17:07;99470.06;;;8.75;65.58
48364;BME280;34170;54.364;18.582;2023-04-26T06:19:35;99481.22;;;9.07;64.02
48364;BME280;34170;54.364;18.582;2023-04-26T06:22:03;99480.00;;;8.83;64.18
48364;BME280;34170;54.364;18.582;2023-04-26T06:24:30;99472.41;;;8.96;64.42
48364;BME280;34170;54.364;18.582;2023-04-26T06:26:58;99475.69;;;8.90;64.87
48364;BME280;34170;54.364;18.582;2023-04-26T06:29:26;99495.75;;;9.22;64.11
48364;BME280;34170;54.364;18.582;2023-04-26T06:31:54;99479.16;;;9.01;62.85
48364;BME280;34170;54.364;18.582;2023-04-26T06:34:23;99476.13;;;9.22;63.17
48364;BME280;34170;54.364;18.582;2023-04-26T06:36:52;99482.84;;;9.00;63.52
48364;BME280;34170;54.364;18.582;2023-04-26T06:39:25;99464.63;;;9.29;62.33
48364;BME280;34170;54.364;18.582;2023-04-26T06:41:53;99482.09;;;9.60;60.10
48364;BME280;34170;54.364;18.582;2023-04-26T06:49:17;99464.13;;;10.37;56.30
48364;BME280;34170;54.364;18.582;2023-04-26T06:51:44;99469.91;;;10.51;55.83
48364;BME280;34170;54.364;18.582;2023-04-26T06:54:12;99466.38;;;12.13;51.38
48364;BME280;34170;54.364;18.582;2023-04-26T06:56:40;99484.63;;;16.31;42.67
48364;BME280;34170;54.364;18.582;2023-04-26T06:59:07;99484.72;;;15.75;40.36
48364;BME280;34170;54.364;18.582;2023-04-26T07:01:35;99483.91;;;12.94;45.62
48364;BME280;34170;54.364;18.582;2023-04-26T07:04:04;99489.91;;;12.27;46.47
48364;BME280;34170;54.364;18.582;2023-04-26T07:06:35;99492.41;;;11.73;49.47
48364;BME280;34170;54.364;18.582;2023-04-26T07:09:03;99477.50;;;11.54;49.83
48364;BME280;34170;54.364;18.582;2023-04-26T07:11:31;99483.69;;;10.64;51.55
48364;BME280;34170;54.364;18.582;2023-04-26T07:13:59;99486.94;;;10.25;53.28
48364;BME280;34170;54.364;18.582;2023-04-26T07:16:26;99492.31;;;10.25;55.09
48364;BME280;34170;54.364;18.582;2023-04-26T07:18:55;99486.69;;;10.02;55.01
48364;BME280;34170;54.364;18.582;2023-04-26T07:21:25;99482.34;;;10.17;54.96
48364;BME280;34170;54.364;18.582;2023-04-26T07:23:56;99476.69;;;9.86;55.45
48364;BME280;34170;54.364;18.582;2023-04-26T07:26:24;99487.56;;;9.24;57.34
48364;BME280;34170;54.364;18.582;2023-04-26T07:28:55;99487.16;;;9.19;58.46
48364;BME280;34170;54.364;18.582;2023-04-26T07:31:23;99491.63;;;9.10;58.67
48364;BME280;34170;54.364;18.582;2023-04-26T07:33:51;99495.44;;;9.25;59.79
48364;BME280;34170;54.364;18.582;2023-04-26T07:36:19;99492.81;;;9.33;59.06
48364;BME280;34170;54.364;18.582;2023-04-26T07:38:50;99488.78;;;9.56;59.08
48364;BME280;34170;54.364;18.582;2023-04-26T07:41:17;99497.13;;;10.64;54.97
48364;BME280;34170;54.364;18.582;2023-04-26T07:43:45;99492.88;;;10.37;54.33
48364;BME280;34170;54.364;18.582;2023-04-26T07:46:13;99488.03;;;10.57;54.46
48364;BME280;34170;54.364;18.582;2023-04-26T07:48:40;99502.53;;;10.72;54.13
48364;BME280;34170;54.364;18.582;2023-04-26T07:51:12;99493.72;;;10.03;55.39
48364;BME280;34170;54.364;18.582;2023-04-26T07:53:40;99490.34;;;9.66;56.02
48364;BME280;34170;54.364;18.582;2023-04-26T07:56:08;99503.31;;;10.05;55.43
48364;BME280;34170;54.364;18.582;2023-04-26T07:58:36;99502.59;;;9.95;56.40
48364;BME280;34170;54.364;18.582;2023-04-26T08:01:05;99505.75;;;9.38;57.96
48364;BME280;34170;54.364;18.582;2023-04-26T08:03:33;99501.09;;;9.66;58.43
48364;BME280;34170;54.364;18.582;2023-04-26T08:06:01;99509.19;;;9.74;57.64
48364;BME280;34170;54.364;18.582;2023-04-26T08:08:30;99486.44;;;10.21;56.13
48364;BME280;34170;54.364;18.582;2023-04-26T08:10:59;99514.25;;;10.55;54.92
48364;BME280;34170;54.364;18.582;2023-04-26T08:13:27;99506.63;;;10.34;56.09
48364;BME280;34170;54.364;18.582;2023-04-26T08:15:55;99503.34;;;9.53;58.45
48364;BME280;34170;54.364;18.582;2023-04-26T08:18:23;99509.03;;;9.50;59.52
48364;BME280;34170;54.364;18.582;2023-04-26T08:20:51;99513.84;;;9.20;61.13
48364;BME280;34170;54.364;18.582;2023-04-26T08:23:21;99499.75;;;9.18;61.19
48364;BME280;34170;54.364;18.582;2023-04-26T08:25:49;99517.09;;;8.70;63.93
48364;BME280;34170;54.364;18.582;2023-04-26T08:28:17;99521.75;;;8.40;67.76
48364;BME280;34170;54.364;18.582;2023-04-26T08:30:44;99528.38;;;8.08;72.84
48364;BME280;34170;54.364;18.582;2023-04-26T08:33:12;99527.97;;;7.75;78.17
48364;BME280;34170;54.364;18.582;2023-04-26T08:35:39;99538.38;;;8.16;79.32
48364;BME280;34170;54.364;18.582;2023-04-26T08:38:07;99531.94;;;7.61;84.02
48364;BME280;34170;54.364;18.582;2023-04-26T08:40:35;99541.97;;;7.97;81.79
48364;BME280;34170;54.364;18.582;2023-04-26T08:43:03;99537.75;;;7.37;86.17
48364;BME280;34170;54.364;18.582;2023-04-26T08:45:33;99547.78;;;7.92;85.93
48364;BME280;34170;54.364;18.582;2023-04-26T08:48:05;99531.13;;;7.98;86.73
48364;BME280;34170;54.364;18.582;2023-04-26T08:50:38;99538.94;;;8.19;86.07
48364;BME280;34170;54.364;18.582;2023-04-26T08:53:07;99548.53;;;8.12;85.44
48364;BME280;34170;54.364;18.582;2023-04-26T08:55:35;99540.25;;;8.33;85.04
48364;BME280;34170;54.364;18.582;2023-04-26T08:58:04;99537.56;;;8.43;85.14
48364;BME280;34170;54.364;18.582;2023-04-26T09:00:32;99537.81;;;8.50;86.13
48364;BME280;34170;54.364;18.582;2023-04-26T09:02:59;99539.41;;;8.43;86.99
48364;BME280;34170;54.364;18.582;2023-04-26T09:05:27;99548.03;;;8.82;82.89
48364;BME280;34170;54.364;18.582;2023-04-26T09:08:05;99550.19;;;8.23;81.46
48364;BME280;34170;54.364;18.582;2023-04-26T09:10:33;99546.31;;;7.60;85.22
48364;BME280;34170;54.364;18.582;2023-04-26T09:13:01;99537.88;;;8.30;81.75
48364;BME280;34170;54.364;18.582;2023-04-26T09:15:29;99560.25;;;8.67;79.39
48364;BME280;34170;54.364;18.582;2023-04-26T09:18:15;99533.09;;;8.24;79.65
48364;BME280;34170;54.364;18.582;2023-04-26T09:20:44;99554.91;;;8.39;78.15
48364;BME280;34170;54.364;18.582;2023-04-26T09:23:12;99556.97;;;8.17;78.02
48364;BME280;34170;54.364;18.582;2023-04-26T09:25:40;99555.13;;;7.80;81.65
48364;BME280;34170;54.364;18.582;2023-04-26T09:28:19;99558.22;;;8.23;79.62
48364;BME280;34170;54.364;18.582;2023-04-26T09:30:47;99546.91;;;8.29;78.99
48364;BME280;34170;54.364;18.582;2023-04-26T09:33:15;99555.16;;;8.46;77.17
48364;BME280;34170;54.364;18.582;2023-04-26T09:35:43;99554.69;;;8.78;74.42
48364;BME280;34170;54.364;18.582;2023-04-26T09:38:13;99564.81;;;9.20;73.69
48364;BME280;34170;54.364;18.582;2023-04-26T09:40:44;99566.91;;;9.97;70.58
48364;BME280;34170;54.364;18.582;2023-04-26T09:43:13;99565.34;;;9.94;70.18
48364;BME280;34170;54.364;18.582;2023-04-26T09:45:56;99571.34;;;9.35;70.45
48364;BME280;34170;54.364;18.582;2023-04-26T09:48:28;99570.25;;;9.46;71.00
48364;BME280;34170;54.364;18.582;2023-04-26T09:50:58;99570.78;;;10.02;68.64
48364;BME280;34170;54.364;18.582;2023-04-26T09:53:40;99580.94;;;10.17;68.52
48364;BME280;34170;54.364;18.582;2023-04-26T09:56:13;99577.03;;;10.11;69.72
48364;BME280;34170;54.364;18.582;2023-04-26T10:01:19;99593.25;;;10.01;71.28
48364;BME280;34170;54.364;18.582;2023-04-26T10:03:46;99581.66;;;9.48;72.21
48364;BME280;34170;54.364;18.582;2023-04-26T10:06:15;99585.19;;;9.31;74.41
48364;BME280;34170;54.364;18.582;2023-04-26T10:08:43;99579.19;;;9.37;73.53
48364;BME280;34170;54.364;18.582;2023-04-26T10:11:11;99584.28;;;9.22;74.96
48364;BME280;34170;54.364;18.582;2023-04-26T10:14:12;99601.94;;;9.07;76.49
48364;BME280;34170;54.364;18.582;2023-04-26T10:16:40;99600.47;;;8.67;79.52
48364;BME280;34170;54.364;18.582;2023-04-26T10:19:11;99603.25;;;8.75;80.02
48364;BME280;34170;54.364;18.582;2023-04-26T10:21:39;99613.97;;;8.75;79.43
48364;BME280;34170;54.364;18.582;2023-04-26T10:24:09;99608.91;;;8.72;79.63
48364;BME280;34170;54.364;18.582;2023-04-26T10:26:52;99614.47;;;9.24;77.54
48364;BME280;34170;54.364;18.582;2023-04-26T10:29:24;99621.72;;;9.86;76.01
48364;BME280;34170;54.364;18.582;2023-04-26T10:34:30;99615.28;;;11.16;70.47
48364;BME280;34170;54.364;18.582;2023-04-26T10:37:09;99614.13;;;12.09;64.66
48364;BME280;34170;54.364;18.582;2023-04-26T10:39:39;99627.94;;;12.06;64.67
48364;BME280;34170;54.364;18.582;2023-04-26T10:44:58;99631.31;;;10.83;70.20
48364;BME280;34170;54.364;18.582;2023-04-26T10:47:34;99636.44;;;9.82;78.28
48364;BME280;34170;54.364;18.582;2023-04-26T10:50:09;99656.16;;;8.45;91.09
48364;BME280;34170;54.364;18.582;2023-04-26T10:59:14;99655.72;;;8.77;94.27
48364;BME280;34170;54.364;18.582;2023-04-26T11:01:44;99667.00;;;8.81;93.66
48364;BME280;34170;54.364;18.582;2023-04-26T11:04:12;99655.56;;;9.07;100.00
48364;BME280;34170;54.364;18.582;2023-04-26T11:06:51;99659.53;;;9.21;98.83
48364;BME280;34170;54.364;18.582;2023-04-26T11:09:39;99659.84;;;10.16;91.64
48364;BME280;34170;54.364;18.582;2023-04-26T11:12:12;99655.22;;;10.00;88.68
48364;BME280;34170;54.364;18.582;2023-04-26T11:14:40;99659.66;;;10.35;89.44
48364;BME280;34170;54.364;18.582;2023-04-26T11:17:09;99661.41;;;11.46;80.84
48364;BME280;34170;54.364;18.582;2023-04-26T11:19:36;99671.13;;;11.14;77.87
48364;BME280;34170;54.364;18.582;2023-04-26T11:22:06;99666.28;;;10.83;79.80
48364;BME280;34170;54.364;18.582;2023-04-26T11:24:35;99659.78;;;10.52;76.41
48364;BME280;34170;54.364;18.582;2023-04-26T11:27:08;99663.50;;;10.59;77.39
48364;BME280;34170;54.364;18.582;2023-04-26T11:29:36;99673.66;;;10.21;79.46
48364;BME280;34170;54.364;18.582;2023-04-26T11:32:04;99681.91;;;10.01;76.24
48364;BME280;34170;54.364;18.582;2023-04-26T11:34:33;99661.31;;;10.97;73.01
48364;BME280;34170;54.364;18.582;2023-04-26T11:37:02;99674.53;;;10.47;70.22
48364;BME280;34170;54.364;18.582;2023-04-26T11:39:31;99671.47;;;11.28;67.23
48364;BME280;34170;54.364;18.582;2023-04-26T11:42:07;99662.00;;;11.07;68.99
48364;BME280;34170;54.364;18.582;2023-04-26T11:44:52;99682.19;;;11.19;66.06
48364;BME280;34170;54.364;18.582;2023-04-26T11:47:20;99684.00;;;12.27;62.58
48364;BME280;34170;54.364;18.582;2023-04-26T11:49:49;99687.31;;;12.46;60.27
48364;BME280;34170;54.364;18.582;2023-04-26T11:52:17;99671.16;;;12.46;60.21
48364;BME280;34170;54.364;18.582;2023-04-26T11:54:45;99662.25;;;11.55;59.07
48364;BME280;34170;54.364;18.582;2023-04-26T11:57:13;99686.34;;;11.73;58.87
48364;BME280;34170;54.364;18.582;2023-04-26T11:59:44;99672.78;;;11.15;59.01
48364;BME280;34170;54.364;18.582;2023-04-26T12:02:12;99668.97;;;11.42;54.96
48364;BME280;34170;54.364;18.582;2023-04-26T12:04:40;99681.47;;;11.01;56.76
48364;BME280;34170;54.364;18.582;2023-04-26T12:07:08;99671.38;;;10.52;57.45
48364;BME280;34170;54.364;18.582;2023-04-26T12:09:39;99690.44;;;10.41;59.80
48364;BME280;34170;54.364;18.582;2023-04-26T12:12:08;99691.19;;;11.44;56.48
48364;BME280;34170;54.364;18.582;2023-04-26T12:14:39;99692.66;;;11.22;56.97
48364;BME280;34170;54.364;18.582;2023-04-26T12:17:07;99693.94;;;11.02;55.96
48364;BME280;34170;54.364;18.582;2023-04-26T12:19:39;99702.44;;;11.32;56.14
48364;BME280;34170;54.364;18.582;2023-04-26T12:22:07;99688.66;;;11.35;53.01
48364;BME280;34170;54.364;18.582;2023-04-26T12:24:35;99705.06;;;11.15;52.88
48364;BME280;34170;54.364;18.582;2023-04-26T12:27:06;99714.91;;;11.41;51.80
48364;BME280;34170;54.364;18.582;2023-04-26T12:29:34;99703.44;;;11.39;50.85
48364;BME280;34170;54.364;18.582;2023-04-26T12:32:02;99709.53;;;10.56;49.28
48364;BME280;34170;54.364;18.582;2023-04-26T12:34:30;99704.41;;;10.26;49.41
48364;BME280;34170;54.364;18.582;2023-04-26T12:36:58;99718.00;;;9.81;49.97
48364;BME280;34170;54.364;18.582;2023-04-26T12:39:25;99719.28;;;10.13;49.21
48364;BME280;34170;54.364;18.582;2023-04-26T12:41:53;99718.56;;;10.81;49.57
48364;BME280;34170;54.364;18.582;2023-04-26T12:44:21;99732.53;;;11.27;49.36
48364;BME280;34170;54.364;18.582;2023-04-26T12:46:49;99721.34;;;11.56;54.52
48364;BME280;34170;54.364;18.582;2023-04-26T12:49:17;99709.50;;;11.41;50.03
48364;BME280;34170;54.364;18.582;2023-04-26T12:51:44;99724.78;;;11.24;47.59
48364;BME280;34170;54.364;18.582;2023-04-26T12:54:12;99721.22;;;11.07;46.54
48364;BME280;34170;54.364;18.582;2023-04-26T12:56:39;99709.06;;;10.95;45.26
48364;BME280;34170;54.364;18.582;2023-04-26T12:59:10;99726.41;;;10.66;47.07
48364;BME280;34170;54.364;18.582;2023-04-26T13:01:38;99725.91;;;10.26;47.17
48364;BME280;34170;54.364;18.582;2023-04-26T13:04:05;99731.34;;;10.53;48.20
48364;BME280;34170;54.364;18.582;2023-04-26T13:06:34;99730.81;;;10.75;49.55
48364;BME280;34170;54.364;18.582;2023-04-26T13:09:01;99726.88;;;10.96;50.44
48364;BME280;34170;54.364;18.582;2023-04-26T13:11:29;99731.72;;;11.35;49.63
48364;BME280;34170;54.364;18.582;2023-04-26T13:13:56;99737.34;;;11.58;48.32
48364;BME280;34170;54.364;18.582;2023-04-26T13:16:24;99736.84;;;11.12;48.15
48364;BME280;34170;54.364;18.582;2023-04-26T13:18:52;99734.56;;;10.91;49.59
48364;BME280;34170;54.364;18.582;2023-04-26T13:21:20;99740.38;;;11.04;47.44
48364;BME280;34170;54.364;18.582;2023-04-26T13:23:47;99747.25;;;11.06;45.07
48364;BME280;34170;54.364;18.582;2023-04-26T13:26:15;99750.00;;;10.80;43.43
48364;BME280;34170;54.364;18.582;2023-04-26T13:28:44;99726.13;;;11.20;41.43
48364;BME280;34170;54.364;18.582;2023-04-26T13:31:11;99736.63;;;10.97;40.07
48364;BME280;34170;54.364;18.582;2023-04-26T13:33:39;99745.75;;;11.12;40.30